Time;durP1;ratioP1;P1;durP2;ratioP2;P2;SDS_P1;SDS_P2;PMS_P1;PMS_P2;Temp;Humidity;BMP_temperature;BMP_pressure;BME280_temperature;BME280_humidity;BME280_pressure;Samples;Min_cycle;Max_cycle;Signal;HPM_P1;HPM_P2
2021/12/01 00:00:51;;;;;;;4.85;1.75;;;;;;;0.44;76.67;96845.78;6122367;23;20076;-64
2021/12/01 00:03:17;;;;;;;2.00;1.90;;;;;;;0.37;78.58;96852.22;6120627;23;20056;-64
2021/12/01 00:05:43;;;;;;;1.70;1.60;;;;;;;0.30;79.54;96858.66;6122278;23;20025;-63
2021/12/01 00:08:09;;;;;;;2.28;2.17;;;;;;;0.21;80.28;96861.78;6122096;23;20021;-64
2021/12/01 00:10:36;;;;;;;1.90;1.80;;;;;;;0.07;81.00;96851.56;6121899;23;20018;-64
2021/12/01 00:13:03;;;;;;;1.90;1.80;;;;;;;0.06;81.52;96865.31;6120338;23;20038;-64
2021/12/01 00:15:29;;;;;;;2.25;2.10;;;;;;;0.11;81.61;96858.16;6121478;23;20021;-64
2021/12/01 00:17:55;;;;;;;1.70;1.60;;;;;;;0.09;81.49;96865.13;6120568;23;20409;-64
2021/12/01 00:20:21;;;;;;;2.08;1.98;;;;;;;0.10;82.06;96864.22;6122079;23;20100;-64
2021/12/01 00:22:48;;;;;;;1.77;1.65;;;;;;;0.19;81.71;96855.94;6122467;23;20018;-63
2021/12/01 00:25:16;;;;;;;2.08;1.52;;;;;;;0.24;81.65;96859.03;6121811;23;20110;-63
2021/12/01 00:27:42;;;;;;;2.08;2.00;;;;;;;0.17;81.05;96852.63;6122209;23;20022;-63
2021/12/01 00:30:09;;;;;;;1.88;1.77;;;;;;;0.19;81.10;96855.94;6120170;23;20449;-63
2021/12/01 00:32:35;;;;;;;1.80;1.58;;;;;;;0.12;80.98;96862.38;6120584;23;20152;-63
2021/12/01 00:35:03;;;;;;;1.75;1.65;;;;;;;0.12;81.21;96859.78;6121645;23;20029;-62
2021/12/01 00:37:29;;;;;;;2.05;1.95;;;;;;;0.10;81.37;96853.97;6144353;23;20025;-62
2021/12/01 00:39:55;;;;;;;1.98;1.88;;;;;;;0.12;81.08;96865.75;6122103;23;20025;-62
2021/12/01 00:42:21;;;;;;;1.73;1.63;;;;;;;0.00;81.11;96863.94;6121789;23;20458;-62
2021/12/01 00:44:54;;;;;;;1.58;1.52;;;;;;;0.06;80.78;96875.56;6121793;23;20018;-64
2021/12/01 00:47:22;;;;;;;1.90;1.80;;;;;;;0.07;80.53;96866.94;6143412;23;20018;-64
2021/12/01 00:49:48;;;;;;;1.70;1.60;;;;;;;0.07;80.59;96864.38;6122107;23;20029;-64
2021/12/01 00:52:14;;;;;;;2.25;1.95;;;;;;;0.09;80.91;96870.25;6122065;23;20029;-64
2021/12/01 00:54:41;;;;;;;2.00;1.90;;;;;;;0.16;80.93;96874.09;6120723;23;20084;-64
2021/12/01 00:57:07;;;;;;;1.50;1.50;;;;;;;0.00;80.15;96872.44;6121655;23;20077;-64
2021/12/01 00:59:34;;;;;;;1.65;1.65;;;;;;;0.02;80.55;96879.22;6096318;23;20018;-64
2021/12/01 01:02:00;;;;;;;2.40;1.90;;;;;;;0.06;80.08;96862.75;6120433;23;20017;-63
2021/12/01 01:04:26;;;;;;;1.50;1.40;;;;;;;0.09;80.04;96865.13;6122079;23;20024;-65
2021/12/01 01:06:52;;;;;;;1.55;1.55;;;;;;;0.05;79.53;96872.16;6122078;23;20077;-63
2021/12/01 01:09:18;;;;;;;1.98;1.88;;;;;;;0.09;79.17;96865.94;6121622;23;20076;-66
2021/12/01 01:17:24;;;;;;;1.90;1.80;;;;;;;0.12;80.40;96872.63;6121393;23;20017;-64
2021/12/01 01:19:50;;;;;;;1.65;1.55;;;;;;;0.13;79.86;96876.84;6120251;23;20018;-64
2021/12/01 01:22:16;;;;;;;1.55;1.45;;;;;;;0.02;80.09;96889.47;6121487;23;20096;-63
2021/12/01 01:24:42;;;;;;;1.90;1.80;;;;;;;0.13;80.63;96887.09;6120386;23;20022;-62
2021/12/01 01:27:08;;;;;;;1.70;1.60;;;;;;;0.06;80.43;96889.22;6119710;23;20018;-63
2021/12/01 01:29:36;;;;;;;1.75;1.67;;;;;;;0.10;81.21;96882.16;6121729;23;20026;-63
2021/12/01 01:32:02;;;;;;;1.75;1.65;;;;;;;0.06;80.81;96878.97;6121643;23;20026;-62
2021/12/01 01:34:28;;;;;;;1.90;1.80;;;;;;;0.05;80.93;96876.47;6122534;23;20050;-62
2021/12/01 02:06:23;;;;;;;1.70;1.60;;;;;;;0.09;80.18;96901.00;6171759;23;20033;-62
2021/12/01 02:08:50;;;;;;;1.65;1.55;;;;;;;0.11;80.05;96892.31;6182394;23;20036;-62
2021/12/01 02:11:17;;;;;;;1.90;1.80;;;;;;;0.08;79.67;96905.31;6182161;23;20067;-63
2021/12/01 02:13:44;;;;;;;1.77;1.67;;;;;;;0.00;79.69;96905.75;6182692;23;20088;-63
2021/12/01 02:16:11;;;;;;;1.90;1.80;;;;;;;0.11;79.80;96909.41;6182033;23;20449;-63
2021/12/01 02:18:38;;;;;;;1.50;1.50;;;;;;;-0.03;79.15;96920.50;6182087;23;20076;-66
2021/12/01 02:21:08;;;;;;;2.00;1.70;;;;;;;0.02;79.30;96915.94;6180833;23;20028;-65
2021/12/01 02:23:42;;;;;;;2.58;1.88;;;;;;;-0.11;79.07;96904.78;6182800;23;20048;-63
2021/12/01 02:26:09;;;;;;;1.63;1.55;;;;;;;-0.04;79.94;96914.56;6180100;23;20541;-65
2021/12/01 02:28:35;;;;;;;1.75;1.67;;;;;;;-0.01;79.31;96922.09;6182383;23;20364;-65
2021/12/01 02:31:01;;;;;;;1.80;1.70;;;;;;;-0.03;79.71;96917.94;6182365;23;20020;-65
2021/12/01 02:33:27;;;;;;;1.85;1.75;;;;;;;-0.06;79.42;96913.81;6180527;23;20063;-63
2021/12/01 02:35:53;;;;;;;1.58;1.55;;;;;;;-0.07;78.99;96929.31;6182277;23;20021;-64
2021/12/01 02:38:19;;;;;;;1.88;1.77;;;;;;;-0.09;79.00;96931.94;6182507;23;20032;-64
2021/12/01 02:40:46;;;;;;;2.00;1.90;;;;;;;-0.03;79.37;96923.88;6180773;23;20092;-64
2021/12/01 02:43:12;;;;;;;1.70;1.60;;;;;;;0.02;78.72;96921.06;6182144;23;20024;-64
2021/12/01 02:45:41;;;;;;;1.92;1.83;;;;;;;-0.06;78.80;96921.50;6182534;23;20476;-63
2021/12/01 02:48:11;;;;;;;2.33;1.70;;;;;;;-0.07;79.04;96929.31;6181758;23;20075;-64
2021/12/01 02:50:37;;;;;;;1.80;1.70;;;;;;;-0.12;78.73;96932.13;6182826;23;20669;-63
2021/12/01 02:53:03;;;;;;;1.92;1.83;;;;;;;-0.02;79.31;96933.25;6182266;23;20412;-65
2021/12/01 02:55:29;;;;;;;2.10;2.00;;;;;;;-0.04;78.36;96942.78;6182414;23;20148;-64
2021/12/01 02:57:59;;;;;;;1.90;1.80;;;;;;;-0.07;78.75;96937.84;6180746;23;20021;-64
2021/12/01 03:00:25;;;;;;;1.63;1.52;;;;;;;-0.04;78.07;96953.03;6182427;23;20456;-66
2021/12/01 03:02:51;;;;;;;2.17;2.00;;;;;;;-0.03;78.29;96953.81;6181564;23;20021;-67
2021/12/01 03:05:17;;;;;;;1.95;1.85;;;;;;;-0.06;77.94;96949.72;6179791;23;20461;-66
2021/12/01 03:07:43;;;;;;;1.88;1.70;;;;;;;-0.05;78.11;96951.38;6181920;23;20067;-65
2021/12/01 03:10:10;;;;;;;3.53;1.95;;;;;;;-0.03;78.32;96954.66;6180085;23;20072;-67
2021/12/01 03:12:37;;;;;;;2.10;2.00;;;;;;;-0.02;77.59;96961.44;6180296;23;20021;-66
2021/12/01 03:15:04;;;;;;;2.28;2.08;;;;;;;-0.02;78.16;96947.78;6181817;23;20448;-66
2021/12/01 03:17:30;;;;;;;4.30;1.95;;;;;;;-0.05;77.59;96932.59;6181710;23;20397;-70
2021/12/01 03:19:57;;;;;;;2.40;2.20;;;;;;;-0.06;77.22;96956.56;6180594;23;20021;-66
2021/12/01 03:22:23;;;;;;;2.38;2.10;;;;;;;-0.05;77.52;96956.50;6181498;23;20021;-67
2021/12/01 03:24:49;;;;;;;1.75;1.70;;;;;;;0.02;77.70;96961.25;6181529;23;20499;-66
2021/12/01 03:27:16;;;;;;;2.13;1.92;;;;;;;0.00;76.72;96943.41;6181480;23;20099;-67
2021/12/01 03:29:42;;;;;;;3.17;2.22;;;;;;;-0.03;77.13;96948.69;6182047;23;20032;-66
2021/12/01 03:32:08;;;;;;;2.08;1.98;;;;;;;0.00;77.02;96964.72;6181824;23;20497;-66
2021/12/01 03:34:35;;;;;;;2.30;2.20;;;;;;;0.06;77.23;96967.84;6181540;23;20100;-67
2021/12/01 03:37:01;;;;;;;2.15;2.05;;;;;;;0.06;77.28;96942.22;6181753;23;20013;-67
2021/12/01 03:39:27;;;;;;;2.67;2.55;;;;;;;0.08;76.52;96946.34;6181447;23;20017;-68
2021/12/01 03:41:53;;;;;;;3.10;2.08;;;;;;;0.08;76.96;96960.88;6180142;23;20016;-67
2021/12/01 03:44:19;;;;;;;3.55;1.73;;;;;;;0.05;76.29;96958.50;6204924;23;20028;-68
2021/12/01 03:46:45;;;;;;;2.17;2.08;;;;;;;0.06;76.35;96957.59;6181369;23;20021;-68
2021/12/01 03:49:12;;;;;;;2.60;1.90;;;;;;;0.09;76.13;96959.97;6179438;23;20027;-68
2021/12/01 03:51:38;;;;;;;2.15;2.05;;;;;;;0.08;76.78;96960.88;6180264;23;20024;-67
2021/12/01 03:54:04;;;;;;;2.55;2.17;;;;;;;0.07;76.52;96964.34;6181745;23;20334;-66
2021/12/01 03:56:30;;;;;;;2.85;2.00;;;;;;;0.03;76.16;96965.47;6181196;23;20467;-67
2021/12/01 03:58:56;;;;;;;1.98;1.88;;;;;;;0.08;75.77;96966.00;6181206;23;20029;-67
2021/12/01 04:01:22;;;;;;;2.40;2.30;;;;;;;0.07;76.45;96977.19;6180517;23;20020;-67
2021/12/01 04:03:48;;;;;;;4.07;2.00;;;;;;;0.07;76.69;96983.13;6179654;23;20072;-66
2021/12/01 04:06:15;;;;;;;2.00;1.90;;;;;;;0.08;76.92;96971.13;6177450;23;20028;-67
2021/12/01 04:08:41;;;;;;;2.00;1.90;;;;;;;0.03;76.43;96979.13;6176955;23;20032;-66
2021/12/01 04:11:07;;;;;;;1.70;1.60;;;;;;;0.03;76.38;96980.84;6176013;23;20448;-67
2021/12/01 04:13:33;;;;;;;2.28;2.17;;;;;;;0.04;76.97;96975.63;6150356;23;20025;-67
2021/12/01 04:15:59;;;;;;;2.03;1.92;;;;;;;0.05;76.50;96986.72;6178033;23;20021;-67
2021/12/01 04:18:25;;;;;;;2.00;1.90;;;;;;;0.06;76.54;96983.25;6175876;23;20017;-67
2021/12/01 04:20:51;;;;;;;2.42;2.00;;;;;;;0.00;77.27;96990.34;6178782;23;20021;-67
2021/12/01 04:23:17;;;;;;;1.77;1.77;;;;;;;0.03;77.46;96988.56;6169420;23;20021;-67
2021/12/01 04:25:43;;;;;;;2.00;1.90;;;;;;;0.07;77.15;96992.56;6203748;23;20024;-67
2021/12/01 04:28:09;;;;;;;2.08;1.90;;;;;;;0.06;76.82;96978.94;6180891;23;20017;-68
2021/12/01 04:30:35;;;;;;;2.55;2.10;;;;;;;0.09;76.59;96988.19;6178798;23;20028;-67
2021/12/01 04:33:02;;;;;;;2.00;1.90;;;;;;;0.07;77.16;96993.38;6203717;23;20017;-67
2021/12/01 04:35:28;;;;;;;2.10;2.00;;;;;;;-0.02;76.53;96981.94;6180827;23;20057;-67
2021/12/01 04:37:55;;;;;;;2.00;1.90;;;;;;;-0.02;76.29;96996.50;6181022;23;20031;-68
2021/12/01 04:40:21;;;;;;;2.47;2.28;;;;;;;0.02;77.14;96994.59;6180548;23;20485;-68
2021/12/01 04:42:47;;;;;;;1.90;1.80;;;;;;;0.04;76.49;97005.56;6203954;23;20021;-67
2021/12/01 04:45:14;;;;;;;2.63;2.42;;;;;;;0.00;76.70;96995.50;6181435;23;20365;-68
2021/12/01 04:47:45;;;;;;;2.08;1.83;;;;;;;0.03;76.24;96991.13;6180932;23;20027;-67
2021/12/01 04:50:12;;;;;;;2.15;2.05;;;;;;;0.01;76.12;96993.75;6181109;23;20071;-68
2021/12/01 04:52:38;;;;;;;1.95;1.85;;;;;;;-0.03;76.34;96989.72;6204269;23;20024;-68
2021/12/01 04:55:05;;;;;;;2.20;2.10;;;;;;;0.02;76.50;96997.16;6181047;23;20013;-67
2021/12/01 04:57:31;;;;;;;1.98;1.88;;;;;;;0.04;76.18;96992.75;6180707;23;20021;-68
2021/12/01 04:59:57;;;;;;;2.22;2.13;;;;;;;0.03;75.99;97014.19;6181211;23;20020;-68
2021/12/01 05:02:23;;;;;;;2.20;2.10;;;;;;;0.02;76.38;97017.66;6180657;23;20040;-68
2021/12/01 05:04:49;;;;;;;1.85;1.75;;;;;;;0.03;76.39;97016.75;6180003;23;20021;-67
2021/12/01 05:07:17;;;;;;;2.20;2.10;;;;;;;0.02;75.83;97017.66;6180184;23;20021;-68
2021/12/01 05:09:43;;;;;;;2.20;2.10;;;;;;;0.02;76.39;97018.47;6179993;23;20531;-67
2021/12/01 05:12:09;;;;;;;2.08;1.98;;;;;;;0.00;75.51;97015.19;6179901;23;20028;-68
2021/12/01 05:14:36;;;;;;;2.20;2.10;;;;;;;0.01;76.21;97016.81;6178448;23;20025;-68
2021/12/01 05:17:02;;;;;;;2.15;2.05;;;;;;;0.01;76.39;97014.25;6181046;23;20045;-63
2021/12/01 05:19:28;;;;;;;2.10;2.00;;;;;;;-0.02;76.34;97022.97;6177800;23;20017;-64
2021/12/01 05:21:54;;;;;;;2.45;1.80;;;;;;;-0.05;75.44;97012.88;6179752;23;20429;-63
2021/12/01 05:24:21;;;;;;;2.03;1.92;;;;;;;-0.07;75.46;97029.28;6177893;23;20024;-62
2021/12/01 05:26:47;;;;;;;2.20;2.10;;;;;;;-0.05;75.58;97041.09;6176410;23;20052;-64
2021/12/01 05:29:13;;;;;;;1.98;1.88;;;;;;;-0.05;75.11;97048.78;6174357;23;20449;-62
2021/12/01 05:31:39;;;;;;;2.03;1.92;;;;;;;-0.02;75.53;97042.63;6176453;23;20035;-61
2021/12/01 05:34:05;;;;;;;2.20;2.00;;;;;;;-0.02;75.47;97045.22;6178401;23;20448;-63
2021/12/01 05:36:31;;;;;;;2.25;2.15;;;;;;;-0.03;75.43;97046.94;6177576;23;20040;-64
2021/12/01 05:38:57;;;;;;;2.30;2.10;;;;;;;0.02;75.45;97056.09;6178355;23;20059;-62
2021/12/01 05:57:20;;;;;;;6.82;2.50;;;;;;;-2.15;77.26;97075.47;6354114;22;20248;-80
2021/12/01 05:59:47;;;;;;;3.42;2.38;;;;;;;-2.56;80.02;97059.63;6282834;22;20026;-77
2021/12/01 06:02:20;;;;;;;2.97;2.05;;;;;;;-2.60;81.10;97068.31;6253684;22;20015;-79
2021/12/01 06:04:48;;;;;;;2.45;2.35;;;;;;;-2.57;81.48;97091.16;6229217;22;20027;-81
2021/12/01 06:07:14;;;;;;;4.38;2.40;;;;;;;-2.66;81.98;97089.03;6228547;22;20015;-84
2021/12/01 06:09:41;;;;;;;4.10;2.42;;;;;;;-2.73;82.36;97096.16;6278503;22;20019;-79
2021/12/01 06:12:07;;;;;;;2.65;2.45;;;;;;;-2.75;83.26;97092.03;6279862;22;20474;-84
2021/12/01 06:14:35;;;;;;;2.85;2.60;;;;;;;-2.86;83.43;97078.91;6229723;22;20458;-80
2021/12/01 06:17:00;;;;;;;3.67;2.33;;;;;;;-2.81;83.07;97092.28;6278098;22;20019;-79
2021/12/01 06:19:26;;;;;;;2.42;2.22;;;;;;;-2.78;83.57;97103.19;6253376;22;20078;-80
2021/12/01 06:21:53;;;;;;;2.88;2.67;;;;;;;-2.79;83.82;97100.72;6253849;22;20577;-83
2021/12/01 06:24:19;;;;;;;2.55;2.40;;;;;;;-2.91;84.72;97098.72;6281494;22;20011;-83
2021/12/01 06:26:45;;;;;;;2.33;2.22;;;;;;;-2.87;84.68;97110.44;6280362;22;20023;-84
2021/12/01 06:29:11;;;;;;;3.28;2.17;;;;;;;-2.89;84.79;97115.63;6291924;22;20098;-85
2021/12/01 06:31:38;;;;;;;2.78;2.58;;;;;;;-2.92;85.01;97110.66;6287474;22;20020;-79
2021/12/01 06:34:04;;;;;;;2.90;2.25;;;;;;;-2.95;85.23;97105.69;6252247;22;20459;-81
2021/12/01 06:36:29;;;;;;;2.70;2.50;;;;;;;-2.93;86.74;97114.09;6225070;22;20019;-82
2021/12/01 06:38:55;;;;;;;3.30;3.05;;;;;;;-2.89;85.85;97117.34;6278644;22;20039;-81
2021/12/01 06:41:22;;;;;;;2.70;2.50;;;;;;;-2.90;85.42;97119.06;6276744;22;20112;-82
2021/12/01 06:43:48;;;;;;;2.63;2.50;;;;;;;-2.92;85.38;97120.03;6250316;22;20031;-81
2021/12/01 06:46:14;;;;;;;2.05;1.95;;;;;;;-2.97;85.18;97127.03;6277338;22;20023;-81
2021/12/01 06:48:40;;;;;;;3.47;3.13;;;;;;;-2.91;85.47;97127.59;6276897;22;20077;-80
2021/12/01 06:51:07;;;;;;;5.45;2.40;;;;;;;-2.86;85.45;97124.84;6250567;22;20413;-80
2021/12/01 06:53:33;;;;;;;2.60;2.40;;;;;;;-2.90;85.04;97133.53;6250132;22;20062;-81
2021/12/01 06:55:59;;;;;;;2.50;2.40;;;;;;;-2.85;85.43;97132.44;6278294;22;20089;-80
2021/12/01 06:58:25;;;;;;;2.42;2.22;;;;;;;-2.83;84.47;97134.91;6243163;22;20447;-80
2021/12/01 07:00:51;;;;;;;2.70;2.60;;;;;;;-2.80;84.44;97140.72;6271775;22;20052;-82
2021/12/01 07:03:18;;;;;;;2.28;2.17;;;;;;;-2.77;83.85;97148.22;6271166;22;20379;-82
2021/12/01 07:05:43;;;;;;;2.78;2.58;;;;;;;-2.73;83.32;97136.16;6270904;22;20057;-81
2021/12/01 07:08:10;;;;;;;3.78;2.33;;;;;;;-2.70;82.02;97147.06;6244215;22;20027;-82
2021/12/01 07:10:36;;;;;;;2.97;2.78;;;;;;;-2.71;82.87;97139.44;6243668;22;20198;-81
2021/12/01 07:13:02;;;;;;;4.05;3.13;;;;;;;-2.67;82.01;97153.72;6243559;22;20020;-81
2021/12/01 07:15:29;;;;;;;4.32;2.33;;;;;;;-2.64;81.77;97156.13;6243652;22;20015;-81
2021/12/01 07:17:55;;;;;;;2.40;2.20;;;;;;;-2.64;81.84;97151.03;6269588;22;20043;-81
2021/12/01 07:20:22;;;;;;;2.40;2.20;;;;;;;-2.65;81.17;97160.41;6270542;22;20358;-81
2021/12/01 07:22:48;;;;;;;2.45;2.25;;;;;;;-2.64;81.26;97171.47;6272178;22;20359;-82
2021/12/01 07:25:14;;;;;;;2.58;2.38;;;;;;;-2.61;82.38;97171.31;6243197;22;20020;-82
2021/12/01 07:27:41;;;;;;;2.55;2.42;;;;;;;-2.60;82.07;97178.09;6270517;22;20061;-79
2021/12/01 07:30:08;;;;;;;2.45;2.13;;;;;;;-2.67;82.27;97169.03;6269963;22;20046;-79
2021/12/01 07:32:34;;;;;;;1.83;1.73;;;;;;;-2.65;82.53;97182.59;6243293;22;20020;-81
2021/12/01 07:35:00;;;;;;;2.80;2.63;;;;;;;-2.62;82.56;97175.59;6243607;22;20019;-80
2021/12/01 07:37:26;;;;;;;2.85;2.65;;;;;;;-2.60;81.69;97185.75;6269889;22;20529;-80
2021/12/01 07:39:52;;;;;;;2.60;2.40;;;;;;;-2.53;81.78;97178.63;6270029;22;20398;-81
2021/12/01 07:42:19;;;;;;;3.10;2.80;;;;;;;-2.54;81.67;97185.47;6269862;22;20466;-81
2021/12/01 07:44:45;;;;;;;2.80;2.42;;;;;;;-2.53;80.45;97176.91;6270129;22;20027;-81
2021/12/01 07:47:11;;;;;;;2.05;1.90;;;;;;;-2.50;80.01;97191.25;6242867;22;20050;-81
2021/12/01 07:49:38;;;;;;;3.25;2.70;;;;;;;-2.52;80.80;97186.19;6242636;22;20016;-81
2021/12/01 07:52:05;;;;;;;2.28;2.13;;;;;;;-2.45;80.32;97196.97;6217399;22;20022;-81
2021/12/01 07:54:32;;;;;;;2.38;2.28;;;;;;;-2.39;79.67;97197.50;6269473;22;20303;-81
2021/12/01 07:56:58;;;;;;;2.85;2.70;;;;;;;-2.37;78.05;97190.63;6268172;22;20015;-81
2021/12/01 07:59:24;;;;;;;3.13;2.45;;;;;;;-2.31;78.85;97200.56;6269862;22;20093;-82
2021/12/01 08:01:50;;;;;;;3.40;2.50;;;;;;;-2.30;78.58;97206.50;6242815;22;20455;-82
2021/12/01 08:04:16;;;;;;;3.05;2.75;;;;;;;-2.33;80.60;97209.19;6277416;22;20023;-84
2021/12/01 08:06:43;;;;;;;3.13;2.83;;;;;;;-2.32;80.17;97198.88;6220091;22;20028;-84
2021/12/01 08:09:09;;;;;;;3.67;3.38;;;;;;;-2.38;81.04;97214.50;6271603;22;20015;-83
2021/12/01 08:11:35;;;;;;;2.70;2.50;;;;;;;-2.40;80.88;97211.19;6220170;22;20015;-81
2021/12/01 08:14:02;;;;;;;3.10;2.80;;;;;;;-2.42;81.13;97207.88;6219566;22;20024;-83
2021/12/01 08:16:28;;;;;;;3.45;3.15;;;;;;;-2.38;80.31;97200.91;6268299;22;20073;-82
2021/12/01 08:18:55;;;;;;;2.35;2.22;;;;;;;-2.35;79.61;97216.06;6243410;22;20015;-83
2021/12/01 08:21:28;;;;;;;2.45;2.35;;;;;;;-2.38;79.88;97195.78;6265659;22;20019;-84
2021/12/01 08:23:55;;;;;;;2.45;2.25;;;;;;;-2.47;80.88;97212.38;6273120;22;20088;-85
2021/12/01 08:26:21;;;;;;;5.82;2.72;;;;;;;-2.46;81.91;97216.59;6249375;22;20534;-83
2021/12/01 08:28:47;;;;;;;2.97;2.50;;;;;;;-2.44;82.31;97224.16;6275919;22;20023;-83
2021/12/01 08:31:17;;;;;;;2.15;1.92;;;;;;;-2.51;83.89;97223.63;6276662;22;20015;-82
2021/12/01 08:33:44;;;;;;;4.20;3.40;;;;;;;-2.56;83.71;97220.47;6252338;22;20022;-84
2021/12/01 08:36:11;;;;;;;2.80;2.60;;;;;;;-2.58;84.35;97219.69;6273831;22;20026;-83
2021/12/01 08:38:39;;;;;;;4.45;3.00;;;;;;;-2.55;84.78;97211.06;6219331;22;20359;-82
2021/12/01 08:41:05;;;;;;;3.90;3.60;;;;;;;-2.65;83.79;97215.78;6271000;22;20022;-82
2021/12/01 08:43:32;;;;;;;3.13;2.92;;;;;;;-2.57;85.79;97223.06;6269967;22;20023;-83
2021/12/01 08:45:58;;;;;;;3.03;2.83;;;;;;;-2.57;86.01;97225.63;6243748;22;20019;-84
2021/12/01 08:48:24;;;;;;;2.92;2.72;;;;;;;-2.56;86.12;97224.72;6270840;22;20016;-81
2021/12/01 08:50:51;;;;;;;3.13;2.88;;;;;;;-2.55;85.50;97228.94;6253561;22;20042;-84
2021/12/01 08:53:17;;;;;;;3.10;2.90;;;;;;;-2.58;84.79;97222.22;6245696;22;20107;-84
2021/12/01 08:55:44;;;;;;;3.13;2.80;;;;;;;-2.63;84.71;97232.66;6246203;22;20023;-84
2021/12/01 08:58:11;;;;;;;2.60;2.50;;;;;;;-2.55;85.45;97231.50;6246617;22;20041;-84
2021/12/01 09:00:44;;;;;;;2.80;2.60;;;;;;;-2.59;86.40;97228.25;6220852;22;20015;-85
2021/12/01 09:03:14;;;;;;;3.47;3.10;;;;;;;-2.71;86.00;97236.44;6195622;22;20537;-83
2021/12/01 09:05:40;;;;;;;3.72;3.40;;;;;;;-2.66;87.83;97237.91;6271139;22;20030;-84
2021/12/01 09:08:07;;;;;;;3.17;2.97;;;;;;;-2.67;88.31;97240.53;6254027;22;20026;-85
2021/12/01 09:10:33;;;;;;;2.30;2.20;;;;;;;-2.66;88.52;97239.63;6249304;22;20022;-84
2021/12/01 09:12:59;;;;;;;4.00;3.70;;;;;;;-2.65;88.41;97231.09;6250413;22;20469;-85
2021/12/01 09:15:26;;;;;;;3.78;2.58;;;;;;;-2.72;88.29;97245.00;6275938;22;20016;-84
2021/12/01 09:17:52;;;;;;;4.38;4.00;;;;;;;-2.69;88.54;97252.53;6281130;22;20054;-83
2021/12/01 09:20:18;;;;;;;3.88;3.67;;;;;;;-2.77;87.76;97249.47;6284718;22;20020;-83
2021/12/01 09:22:44;;;;;;;2.92;2.72;;;;;;;-2.73;87.68;97241.63;6285608;22;20068;-83
2021/12/01 09:25:10;;;;;;;3.95;3.65;;;;;;;-2.68;88.83;97249.06;6291018;22;20030;-81
2021/12/01 09:27:36;;;;;;;3.67;3.47;;;;;;;-2.75;88.35;97240.03;6255059;22;20414;-81
2021/12/01 09:30:04;;;;;;;4.20;3.92;;;;;;;-2.65;88.70;97251.50;6273449;22;20016;-82
2021/12/01 09:32:33;;;;;;;4.53;4.13;;;;;;;-2.74;88.00;97259.53;6269165;22;20019;-82
2021/12/01 09:35:00;;;;;;;4.55;4.20;;;;;;;-2.73;87.88;97246.72;6240942;22;20015;-82
2021/12/01 09:37:27;;;;;;;3.22;3.03;;;;;;;-2.71;88.22;97270.44;6239957;22;20045;-83
2021/12/01 09:39:54;;;;;;;4.85;4.30;;;;;;;-2.63;87.89;97257.38;6269989;22;20039;-82
2021/12/01 09:42:20;;;;;;;5.70;3.67;;;;;;;-2.65;87.95;97272.72;6271627;22;20024;-84
2021/12/01 09:44:46;;;;;;;5.00;4.05;;;;;;;-2.68;87.99;97272.88;6193289;22;20080;-81
2021/12/01 09:47:15;;;;;;;4.82;4.35;;;;;;;-2.66;88.00;97268.53;6243587;22;20015;-82
2021/12/01 09:49:41;;;;;;;7.55;4.10;;;;;;;-2.69;87.90;97290.81;6244854;22;20020;-81
2021/12/01 09:52:08;;;;;;;6.43;3.75;;;;;;;-2.69;88.96;97280.59;6243767;22;20047;-81
2021/12/01 09:54:36;;;;;;;6.43;4.68;;;;;;;-2.67;88.35;97286.47;6244391;22;20599;-82
2021/12/01 09:57:06;;;;;;;3.63;3.38;;;;;;;-2.64;87.97;97278.66;6244429;22;20494;-80
2021/12/01 09:59:33;;;;;;;4.22;3.83;;;;;;;-2.75;87.92;97275.78;6271721;22;20016;-81
2021/12/01 10:02:00;;;;;;;4.05;3.65;;;;;;;-2.74;88.62;97287.63;6194571;22;20042;-81
2021/12/01 10:04:28;;;;;;;8.55;3.97;;;;;;;-2.63;88.66;97285.44;6269814;22;20443;-81
2021/12/01 10:07:11;;;;;;;3.35;3.15;;;;;;;-2.67;88.03;97287.28;6270184;22;20058;-80
2021/12/01 10:09:43;;;;;;;4.45;4.00;;;;;;;-2.65;88.52;97288.03;6246996;22;20628;-85
2021/12/01 10:12:09;;;;;;;2.70;2.40;;;;;;;-2.63;87.98;97285.44;6229019;22;20023;-85
2021/12/01 10:14:36;;;;;;;8.90;4.93;;;;;;;-2.68;87.17;97283.06;6203193;22;20046;-82
2021/12/01 10:17:02;;;;;;;4.07;3.78;;;;;;;-2.70;86.89;97273.84;6243350;22;20012;-82
2021/12/01 10:19:29;;;;;;;3.95;3.40;;;;;;;-2.67;87.03;97283.91;6243383;22;20042;-80
2021/12/01 10:21:55;;;;;;;4.35;3.95;;;;;;;-2.71;85.87;97287.47;6269863;22;20015;-80
2021/12/01 10:24:23;;;;;;;3.60;3.35;;;;;;;-2.70;86.53;97299.38;6242381;22;20467;-83
2021/12/01 10:26:54;;;;;;;3.42;3.22;;;;;;;-2.75;86.66;97302.09;6243047;22;20502;-82
2021/12/01 10:29:30;;;;;;;4.28;2.70;;;;;;;-2.73;87.09;97295.22;6242543;22;20506;-82
2021/12/01 10:32:01;;;;;;;2.60;2.50;;;;;;;-2.65;87.12;97297.47;6243389;22;20020;-82
2021/12/01 10:34:43;;;;;;;2.45;2.25;;;;;;;-2.68;86.81;97303.50;6270210;22;20107;-81
2021/12/01 10:37:29;;;;;;;4.28;3.97;;;;;;;-2.69;86.26;97301.03;6272541;22;20042;-80
2021/12/01 10:40:08;;;;;;;3.70;3.47;;;;;;;-2.75;86.17;97301.28;6273072;22;20015;-82
2021/12/01 10:42:34;;;;;;;2.45;2.35;;;;;;;-2.77;85.82;97297.97;6223590;22;20019;-80
2021/12/01 10:45:02;;;;;;;3.35;2.97;;;;;;;-2.73;86.91;97294.38;6274630;22;20020;-82
2021/12/01 10:47:41;;;;;;;4.18;2.95;;;;;;;-2.73;87.44;97300.34;6259632;22;20019;-83
2021/12/01 10:50:08;;;;;;;4.68;4.18;;;;;;;-2.64;87.22;97297.38;6265240;22;20012;-84
2021/12/01 10:52:36;;;;;;;4.60;4.20;;;;;;;-2.69;87.67;97296.75;6279694;22;20157;-84
2021/12/01 10:55:17;;;;;;;7.78;6.25;;;;;;;-2.67;87.41;97301.78;6251283;22;20039;-83
2021/12/01 10:57:44;;;;;;;5.20;4.78;;;;;;;-2.66;87.72;97311.09;6281252;22;20472;-83
2021/12/01 11:00:24;;;;;;;5.03;4.60;;;;;;;-2.65;85.74;97307.66;6252184;22;20336;-83
2021/12/01 11:02:50;;;;;;;6.10;3.95;;;;;;;-2.65;85.48;97305.13;6249093;22;20016;-84
2021/12/01 11:05:31;;;;;;;4.32;3.92;;;;;;;-2.68;84.55;97308.59;6274121;22;20032;-82
2021/12/01 11:08:19;;;;;;;6.57;5.20;;;;;;;-2.65;84.56;97317.88;6271736;22;20418;-79
2021/12/01 11:10:54;;;;;;;3.00;2.80;;;;;;;-2.69;83.75;97299.31;6244822;22;20495;-81
2021/12/01 11:13:21;;;;;;;2.97;2.78;;;;;;;-2.70;82.73;97304.47;6270314;22;20104;-80
2021/12/01 11:15:57;;;;;;;8.57;3.60;;;;;;;-2.73;83.41;97299.50;6271170;22;20536;-81
2021/12/01 11:18:26;;;;;;;2.70;2.47;;;;;;;-2.68;82.58;97310.31;6270695;22;20446;-80
2021/12/01 11:21:05;;;;;;;2.72;2.40;;;;;;;-2.65;80.80;97307.66;6244489;22;20107;-82
2021/12/01 11:23:33;;;;;;;2.67;2.47;;;;;;;-2.57;78.32;97299.66;6272920;22;20015;-81
2021/12/01 11:26:05;;;;;;;2.85;2.60;;;;;;;-2.50;77.49;97308.72;6271404;22;20303;-80
2021/12/01 11:28:39;;;;;;;2.80;2.60;;;;;;;-2.50;75.79;97307.00;6245901;22;20065;-76
2021/12/01 11:31:08;;;;;;;5.10;2.88;;;;;;;-2.56;76.36;97301.31;6271176;22;20133;-76
2021/12/01 11:33:34;;;;;;;2.53;2.38;;;;;;;-2.50;76.24;97317.19;6219654;22;20111;-76
2021/12/01 11:36:06;;;;;;;2.55;2.45;;;;;;;-2.46;75.50;97318.72;6244120;22;20023;-76
2021/12/01 11:38:32;;;;;;;2.42;2.33;;;;;;;-2.53;75.47;97311.41;6218193;22;20590;-76
2021/12/01 11:40:58;;;;;;;2.10;2.00;;;;;;;-2.55;75.47;97308.91;6271634;22;20027;-76
2021/12/01 11:43:35;;;;;;;2.17;2.08;;;;;;;-2.55;75.58;97323.41;6250087;22;20026;-80
2021/12/01 11:46:01;;;;;;;2.10;2.00;;;;;;;-2.53;75.54;97335.22;6244121;22;20120;-80
2021/12/01 11:48:34;;;;;;;1.95;1.85;;;;;;;-2.56;76.13;97327.69;6244345;22;20062;-80
2021/12/01 11:51:21;;;;;;;1.75;1.70;;;;;;;-2.58;76.03;97334.56;6271351;22;20069;-80
2021/12/01 11:53:56;;;;;;;2.35;2.25;;;;;;;-2.67;76.44;97329.84;6243815;22;20020;-80
2021/12/01 11:56:28;;;;;;;3.17;2.50;;;;;;;-2.66;76.87;97339.19;6219389;22;20027;-79
2021/12/01 11:59:13;;;;;;;2.08;1.98;;;;;;;-2.64;75.78;97339.94;6270865;22;20024;-80
2021/12/01 12:01:53;;;;;;;3.10;2.88;;;;;;;-2.65;75.38;97344.22;6271658;22;20031;-80
2021/12/01 12:04:20;;;;;;;2.20;2.10;;;;;;;-2.63;74.80;97349.25;6243565;22;20011;-80
2021/12/01 12:07:19;;;;;;;2.83;2.63;;;;;;;-2.68;74.33;97343.50;6246504;22;20027;-82
2021/12/01 12:10:06;;;;;;;1.75;1.65;;;;;;;-2.66;73.80;97355.34;6277791;22;20015;-81
2021/12/01 12:12:57;;;;;;;2.13;2.03;;;;;;;-2.69;71.84;97358.03;6278744;22;20025;-81
2021/12/01 12:15:56;;;;;;;2.00;1.90;;;;;;;-2.69;72.43;97372.50;6280982;22;20086;-82
2021/12/01 12:18:40;;;;;;;2.25;2.15;;;;;;;-2.74;73.41;97377.78;6204930;22;20018;-80
2021/12/01 12:21:13;;;;;;;2.15;2.05;;;;;;;-2.80;72.50;97367.00;6281308;22;20213;-81
2021/12/01 12:23:40;;;;;;;1.73;1.65;;;;;;;-2.77;71.81;97380.47;6253463;22;20024;-82
2021/12/01 12:26:06;;;;;;;1.80;1.70;;;;;;;-2.76;71.89;97383.84;6203190;22;20141;-81
2021/12/01 12:28:40;;;;;;;4.47;2.30;;;;;;;-2.76;72.49;97389.78;6202184;22;20016;-81
2021/12/01 12:31:24;;;;;;;1.58;1.50;;;;;;;-2.79;72.30;97371.22;6254635;22;20039;-81